Armavir, Russia

8:13 AM MSK on September 22, 2014 (GMT +0400)
Shpakovskoye | Change Station
CLOSE
Current Station
Airport
Location: Stavropol',
Elevation: 1483 ft
Nearby Weather Stations

Elev 1483 ft 45.12 °N, 42.08 °E | Updated 13 minutes ago

Overcast
Overcast
52 °F
Feels Like 52 °F
N
11
Wind Variable Wind from ESE
Gusts 18 mph

Today
High -- | Low -- °F
--% Chance of Precip.
Yesterday
High -- | Low -- °F
Precip. -- in
7:02 AM 7:13 PM
Waning Crescent, 4% visible
Pressure 29.98 in
Visibility 1.9 miles
Clouds Overcast 200 ft
Dew Point 52 °F
Humidity 100%
Rainfall 0.00 in
Snow Depth Not available.
UV 0 out of 12
Pollen Not available.
Air Quality Not available.
Flu Activity Not available.
METAR URMT 220400Z 11005G08MPS 3000 BR OVC002 11/11 Q1015 NOSIG RMK QBB080 OBST OBSC QFE721 SC055

More Conditions Fewer Conditions

Pressure 29.98 in
Visibility 1.9 miles
Clouds Overcast 200 ft
Dew Point 52 °F
Humidity 100%
Rainfall 0.00 in
Snow Depth Not available.
UV 0 out of 12
Pollen Not available.
Air Quality Not available.
Flu Activity Not available.
METAR URMT 220400Z 11005G08MPS 3000 BR OVC002 11/11 Q1015 NOSIG RMK QBB080 OBST OBSC QFE721 SC055

More Conditions Fewer Conditions

10-Day Weather Forecast

Almanac

Astronomy

Sep. 22, 2014 Rise Set
Actual Time 7:02 AM MSK 7:13 PM MSK
Civil Twilight 6:32 AM MSK 7:42 PM MSK
Nautical Twilight 5:58 AM MSK 8:17 PM MSK
Astronomical Twilight 5:23 AM MSK 8:52 PM MSK
Moon 5:07 AM MSK 6:12 PM MSK
Length of Visible Light 13h 10m
Length of Day
12h 11m
Tomorrow will be 3m 6s shorter.
Waning Crescent, 4% of the Moon is Illuminated
Today
Waning Crescent
Sep 24
New
Oct 1
First Quarter
Oct 8
Full
Oct 15
Last Quarter

Yesterday's Extremes

Country Highs Country Lows

Community

WunderPhotos

Upload Photos

1,755,383 photos uploaded!

Nearby

Snow Depth

Not available.

Earthquake Activity

City Distance Mag. Time & Date
No recent earthquake activity has been reported nearby.
Minimum magnitude displayed is 2.5.

Coastal Water Temperatures

Place Temperature
No Stations Reporting

Nearby Weather Stations